sensor_id;sensor_type;location;lat;lon;timestamp;P1;durP1;ratioP1;P2;durP2;ratioP2
31368;SDS011;18004;48.416;10.066;2024-03-07T00:01:02;7.93;;;5.45;;
31368;SDS011;18004;48.416;10.066;2024-03-07T00:03:28;8.40;;;5.45;;
31368;SDS011;18004;48.416;10.066;2024-03-07T00:05:54;11.52;;;6.70;;
31368;SDS011;18004;48.416;10.066;2024-03-07T00:08:20;7.85;;;5.63;;
31368;SDS011;18004;48.416;10.066;2024-03-07T00:10:46;9.27;;;5.70;;
31368;SDS011;18004;48.416;10.066;2024-03-07T00:13:12;8.65;;;5.55;;
31368;SDS011;18004;48.416;10.066;2024-03-07T00:15:38;10.65;;;6.10;;
31368;SDS011;18004;48.416;10.066;2024-03-07T00:18:05;9.15;;;5.97;;
31368;SDS011;18004;48.416;10.066;2024-03-07T00:20:31;7.18;;;5.43;;
31368;SDS011;18004;48.416;10.066;2024-03-07T00:22:57;11.75;;;6.93;;
31368;SDS011;18004;48.416;10.066;2024-03-07T00:25:22;10.73;;;5.97;;
31368;SDS011;18004;48.416;10.066;2024-03-07T00:27:48;13.45;;;7.80;;
31368;SDS011;18004;48.416;10.066;2024-03-07T00:30:18;14.43;;;7.95;;
31368;SDS011;18004;48.416;10.066;2024-03-07T00:32:45;18.52;;;9.38;;
31368;SDS011;18004;48.416;10.066;2024-03-07T00:35:12;22.20;;;11.05;;
31368;SDS011;18004;48.416;10.066;2024-03-07T00:37:38;20.65;;;10.57;;
31368;SDS011;18004;48.416;10.066;2024-03-07T00:40:04;19.20;;;9.85;;
31368;SDS011;18004;48.416;10.066;2024-03-07T00:42:31;20.55;;;10.02;;
31368;SDS011;18004;48.416;10.066;2024-03-07T00:44:57;20.15;;;10.63;;
31368;SDS011;18004;48.416;10.066;2024-03-07T00:47:23;23.65;;;11.63;;
31368;SDS011;18004;48.416;10.066;2024-03-07T00:49:48;29.20;;;11.73;;
31368;SDS011;18004;48.416;10.066;2024-03-07T00:52:15;19.58;;;11.18;;
31368;SDS011;18004;48.416;10.066;2024-03-07T00:54:40;23.33;;;11.80;;
31368;SDS011;18004;48.416;10.066;2024-03-07T00:57:07;25.65;;;12.77;;
31368;SDS011;18004;48.416;10.066;2024-03-07T00:59:33;27.45;;;13.07;;
31368;SDS011;18004;48.416;10.066;2024-03-07T01:01:59;25.15;;;12.82;;
31368;SDS011;18004;48.416;10.066;2024-03-07T01:04:24;25.30;;;12.88;;
31368;SDS011;18004;48.416;10.066;2024-03-07T01:06:56;31.73;;;14.23;;
31368;SDS011;18004;48.416;10.066;2024-03-07T01:09:23;29.73;;;14.10;;
31368;SDS011;18004;48.416;10.066;2024-03-07T01:11:49;25.85;;;13.95;;
31368;SDS011;18004;48.416;10.066;2024-03-07T01:14:15;24.33;;;12.30;;
31368;SDS011;18004;48.416;10.066;2024-03-07T01:16:40;25.98;;;13.43;;
31368;SDS011;18004;48.416;10.066;2024-03-07T01:19:07;25.25;;;12.95;;
31368;SDS011;18004;48.416;10.066;2024-03-07T01:21:33;31.70;;;13.70;;
31368;SDS011;18004;48.416;10.066;2024-03-07T01:24:00;26.17;;;13.63;;
31368;SDS011;18004;48.416;10.066;2024-03-07T01:26:29;25.42;;;12.48;;
31368;SDS011;18004;48.416;10.066;2024-03-07T01:28:59;30.00;;;14.10;;
31368;SDS011;18004;48.416;10.066;2024-03-07T01:31:25;22.05;;;12.77;;
31368;SDS011;18004;48.416;10.066;2024-03-07T01:33:51;27.25;;;13.88;;
31368;SDS011;18004;48.416;10.066;2024-03-07T01:36:18;31.50;;;13.82;;
31368;SDS011;18004;48.416;10.066;2024-03-07T01:38:44;28.23;;;14.35;;
31368;SDS011;18004;48.416;10.066;2024-03-07T01:41:10;26.33;;;13.52;;
31368;SDS011;18004;48.416;10.066;2024-03-07T01:43:36;27.58;;;15.27;;
31368;SDS011;18004;48.416;10.066;2024-03-07T01:46:02;31.05;;;13.82;;
31368;SDS011;18004;48.416;10.066;2024-03-07T01:48:28;23.15;;;13.82;;
31368;SDS011;18004;48.416;10.066;2024-03-07T01:50:57;34.80;;;15.23;;
31368;SDS011;18004;48.416;10.066;2024-03-07T01:53:26;32.38;;;15.25;;
31368;SDS011;18004;48.416;10.066;2024-03-07T01:55:54;31.73;;;15.52;;
31368;SDS011;18004;48.416;10.066;2024-03-07T01:58:20;30.83;;;15.25;;
31368;SDS011;18004;48.416;10.066;2024-03-07T02:00:46;30.25;;;15.35;;
31368;SDS011;18004;48.416;10.066;2024-03-07T02:03:13;37.35;;;16.52;;
31368;SDS011;18004;48.416;10.066;2024-03-07T02:05:41;28.70;;;14.85;;
31368;SDS011;18004;48.416;10.066;2024-03-07T02:08:08;34.92;;;15.40;;
31368;SDS011;18004;48.416;10.066;2024-03-07T02:10:34;28.88;;;15.27;;
31368;SDS011;18004;48.416;10.066;2024-03-07T02:12:59;29.15;;;15.48;;
31368;SDS011;18004;48.416;10.066;2024-03-07T02:15:28;27.58;;;14.95;;
31368;SDS011;18004;48.416;10.066;2024-03-07T02:17:54;30.48;;;17.48;;
31368;SDS011;18004;48.416;10.066;2024-03-07T02:20:20;33.55;;;16.38;;
31368;SDS011;18004;48.416;10.066;2024-03-07T02:22:46;29.52;;;17.05;;
31368;SDS011;18004;48.416;10.066;2024-03-07T02:25:11;30.15;;;16.50;;
31368;SDS011;18004;48.416;10.066;2024-03-07T02:27:38;32.55;;;16.70;;
31368;SDS011;18004;48.416;10.066;2024-03-07T02:30:04;36.42;;;18.42;;
31368;SDS011;18004;48.416;10.066;2024-03-07T02:32:33;34.10;;;16.98;;
31368;SDS011;18004;48.416;10.066;2024-03-07T02:35:00;31.58;;;17.10;;
31368;SDS011;18004;48.416;10.066;2024-03-07T02:37:25;33.58;;;17.85;;
31368;SDS011;18004;48.416;10.066;2024-03-07T02:39:51;32.47;;;18.23;;
31368;SDS011;18004;48.416;10.066;2024-03-07T02:42:17;40.38;;;19.42;;
31368;SDS011;18004;48.416;10.066;2024-03-07T02:44:43;33.65;;;18.98;;
31368;SDS011;18004;48.416;10.066;2024-03-07T02:47:09;39.15;;;16.83;;
31368;SDS011;18004;48.416;10.066;2024-03-07T02:49:35;31.58;;;18.20;;
31368;SDS011;18004;48.416;10.066;2024-03-07T02:52:01;37.45;;;18.65;;
31368;SDS011;18004;48.416;10.066;2024-03-07T02:54:26;36.15;;;18.23;;
31368;SDS011;18004;48.416;10.066;2024-03-07T02:56:52;42.25;;;17.63;;
31368;SDS011;18004;48.416;10.066;2024-03-07T02:59:18;33.50;;;17.92;;
31368;SDS011;18004;48.416;10.066;2024-03-07T03:01:44;34.50;;;16.92;;
31368;SDS011;18004;48.416;10.066;2024-03-07T03:04:10;39.15;;;18.63;;
31368;SDS011;18004;48.416;10.066;2024-03-07T03:06:35;36.83;;;18.88;;
31368;SDS011;18004;48.416;10.066;2024-03-07T03:09:02;36.22;;;17.75;;
31368;SDS011;18004;48.416;10.066;2024-03-07T03:11:30;38.70;;;18.42;;
31368;SDS011;18004;48.416;10.066;2024-03-07T03:13:55;34.67;;;17.95;;
31368;SDS011;18004;48.416;10.066;2024-03-07T03:16:21;34.83;;;18.10;;
31368;SDS011;18004;48.416;10.066;2024-03-07T03:18:47;38.55;;;18.55;;
31368;SDS011;18004;48.416;10.066;2024-03-07T03:21:13;33.40;;;17.50;;
31368;SDS011;18004;48.416;10.066;2024-03-07T03:23:40;33.88;;;18.52;;
31368;SDS011;18004;48.416;10.066;2024-03-07T03:26:06;40.70;;;18.50;;
31368;SDS011;18004;48.416;10.066;2024-03-07T03:28:32;36.47;;;18.08;;
31368;SDS011;18004;48.416;10.066;2024-03-07T03:30:57;37.22;;;17.50;;
31368;SDS011;18004;48.416;10.066;2024-03-07T03:33:23;36.00;;;18.15;;
31368;SDS011;18004;48.416;10.066;2024-03-07T03:35:50;40.88;;;19.45;;
31368;SDS011;18004;48.416;10.066;2024-03-07T03:38:15;38.78;;;16.58;;
31368;SDS011;18004;48.416;10.066;2024-03-07T03:40:43;37.58;;;18.88;;
31368;SDS011;18004;48.416;10.066;2024-03-07T03:43:09;34.42;;;16.73;;
31368;SDS011;18004;48.416;10.066;2024-03-07T03:45:35;35.92;;;16.75;;
31368;SDS011;18004;48.416;10.066;2024-03-07T03:48:01;38.53;;;17.77;;
31368;SDS011;18004;48.416;10.066;2024-03-07T03:50:27;37.90;;;18.08;;
31368;SDS011;18004;48.416;10.066;2024-03-07T03:52:53;39.80;;;18.20;;
31368;SDS011;18004;48.416;10.066;2024-03-07T03:55:20;34.25;;;18.08;;
31368;SDS011;18004;48.416;10.066;2024-03-07T03:57:46;36.05;;;19.55;;
31368;SDS011;18004;48.416;10.066;2024-03-07T04:00:12;35.88;;;19.25;;
31368;SDS011;18004;48.416;10.066;2024-03-07T04:02:47;41.15;;;18.85;;
31368;SDS011;18004;48.416;10.066;2024-03-07T04:05:13;38.78;;;19.40;;
31368;SDS011;18004;48.416;10.066;2024-03-07T04:07:44;38.77;;;20.00;;
31368;SDS011;18004;48.416;10.066;2024-03-07T04:10:10;42.80;;;20.85;;
31368;SDS011;18004;48.416;10.066;2024-03-07T04:12:40;35.83;;;17.52;;
31368;SDS011;18004;48.416;10.066;2024-03-07T04:15:07;36.65;;;19.13;;
31368;SDS011;18004;48.416;10.066;2024-03-07T04:17:35;39.17;;;19.50;;
31368;SDS011;18004;48.416;10.066;2024-03-07T04:20:02;38.60;;;18.23;;
31368;SDS011;18004;48.416;10.066;2024-03-07T04:22:32;45.92;;;20.85;;
31368;SDS011;18004;48.416;10.066;2024-03-07T04:24:59;37.45;;;19.35;;
31368;SDS011;18004;48.416;10.066;2024-03-07T04:27:26;42.63;;;21.10;;
31368;SDS011;18004;48.416;10.066;2024-03-07T04:29:52;32.13;;;17.27;;
31368;SDS011;18004;48.416;10.066;2024-03-07T04:32:18;43.90;;;20.15;;
31368;SDS011;18004;48.416;10.066;2024-03-07T04:34:44;36.38;;;17.42;;
31368;SDS011;18004;48.416;10.066;2024-03-07T04:37:10;37.05;;;18.80;;
31368;SDS011;18004;48.416;10.066;2024-03-07T04:39:38;39.95;;;20.17;;
31368;SDS011;18004;48.416;10.066;2024-03-07T04:42:05;44.97;;;19.63;;
31368;SDS011;18004;48.416;10.066;2024-03-07T04:44:32;35.45;;;18.73;;
31368;SDS011;18004;48.416;10.066;2024-03-07T04:47:00;42.20;;;19.95;;
31368;SDS011;18004;48.416;10.066;2024-03-07T04:49:28;40.03;;;20.02;;
31368;SDS011;18004;48.416;10.066;2024-03-07T04:51:55;43.78;;;18.75;;
31368;SDS011;18004;48.416;10.066;2024-03-07T04:54:24;40.22;;;18.63;;
31368;SDS011;18004;48.416;10.066;2024-03-07T04:56:51;38.60;;;19.13;;
31368;SDS011;18004;48.416;10.066;2024-03-07T04:59:18;30.08;;;17.10;;
31368;SDS011;18004;48.416;10.066;2024-03-07T05:01:45;39.05;;;17.88;;
31368;SDS011;18004;48.416;10.066;2024-03-07T05:04:11;37.20;;;19.85;;
31368;SDS011;18004;48.416;10.066;2024-03-07T05:06:38;40.33;;;20.15;;
31368;SDS011;18004;48.416;10.066;2024-03-07T05:09:05;43.80;;;20.33;;
31368;SDS011;18004;48.416;10.066;2024-03-07T05:11:32;37.55;;;18.98;;
31368;SDS011;18004;48.416;10.066;2024-03-07T05:13:59;10.23;;;5.38;;
31368;SDS011;18004;48.416;10.066;2024-03-07T05:16:25;42.60;;;19.25;;
31368;SDS011;18004;48.416;10.066;2024-03-07T05:18:55;48.10;;;21.70;;
31368;SDS011;18004;48.416;10.066;2024-03-07T05:21:24;43.78;;;20.73;;
31368;SDS011;18004;48.416;10.066;2024-03-07T05:24:03;42.83;;;20.65;;
31368;SDS011;18004;48.416;10.066;2024-03-07T05:26:30;38.38;;;20.42;;
31368;SDS011;18004;48.416;10.066;2024-03-07T05:29:03;39.30;;;20.25;;
31368;SDS011;18004;48.416;10.066;2024-03-07T05:31:36;26.35;;;16.30;;
31368;SDS011;18004;48.416;10.066;2024-03-07T05:34:03;37.38;;;19.73;;
31368;SDS011;18004;48.416;10.066;2024-03-07T05:36:36;37.55;;;19.30;;
31368;SDS011;18004;48.416;10.066;2024-03-07T05:39:09;31.42;;;17.80;;
31368;SDS011;18004;48.416;10.066;2024-03-07T05:41:36;30.38;;;16.73;;
31368;SDS011;18004;48.416;10.066;2024-03-07T05:44:02;33.95;;;18.10;;
31368;SDS011;18004;48.416;10.066;2024-03-07T05:46:29;42.60;;;19.40;;
31368;SDS011;18004;48.416;10.066;2024-03-07T05:48:55;40.40;;;20.17;;
31368;SDS011;18004;48.416;10.066;2024-03-07T05:51:22;35.38;;;18.83;;
31368;SDS011;18004;48.416;10.066;2024-03-07T05:53:51;14.50;;;8.82;;
31368;SDS011;18004;48.416;10.066;2024-03-07T05:56:17;40.40;;;19.77;;
31368;SDS011;18004;48.416;10.066;2024-03-07T05:58:43;47.35;;;20.83;;
31368;SDS011;18004;48.416;10.066;2024-03-07T06:01:08;41.03;;;18.88;;
31368;SDS011;18004;48.416;10.066;2024-03-07T06:03:34;43.50;;;20.33;;
31368;SDS011;18004;48.416;10.066;2024-03-07T06:06:00;42.30;;;20.70;;
31368;SDS011;18004;48.416;10.066;2024-03-07T06:08:26;43.95;;;21.63;;
31368;SDS011;18004;48.416;10.066;2024-03-07T06:10:52;41.28;;;20.60;;
31368;SDS011;18004;48.416;10.066;2024-03-07T06:13:18;45.35;;;20.30;;
31368;SDS011;18004;48.416;10.066;2024-03-07T06:15:44;39.03;;;19.55;;
31368;SDS011;18004;48.416;10.066;2024-03-07T06:18:11;46.35;;;21.90;;
31368;SDS011;18004;48.416;10.066;2024-03-07T06:20:40;39.97;;;20.58;;
31368;SDS011;18004;48.416;10.066;2024-03-07T06:23:06;38.00;;;20.13;;
31368;SDS011;18004;48.416;10.066;2024-03-07T06:25:32;37.80;;;18.85;;
31368;SDS011;18004;48.416;10.066;2024-03-07T06:28:02;51.35;;;22.42;;
31368;SDS011;18004;48.416;10.066;2024-03-07T06:30:35;41.45;;;21.73;;
31368;SDS011;18004;48.416;10.066;2024-03-07T06:33:02;42.72;;;21.83;;
31368;SDS011;18004;48.416;10.066;2024-03-07T06:35:28;36.47;;;19.92;;
31368;SDS011;18004;48.416;10.066;2024-03-07T06:37:53;44.70;;;20.98;;
31368;SDS011;18004;48.416;10.066;2024-03-07T06:40:19;39.58;;;20.65;;
31368;SDS011;18004;48.416;10.066;2024-03-07T06:42:48;49.47;;;21.17;;
31368;SDS011;18004;48.416;10.066;2024-03-07T06:45:14;48.80;;;21.50;;
31368;SDS011;18004;48.416;10.066;2024-03-07T06:47:41;42.45;;;19.02;;
31368;SDS011;18004;48.416;10.066;2024-03-07T06:50:07;40.17;;;19.83;;
31368;SDS011;18004;48.416;10.066;2024-03-07T06:52:34;47.35;;;20.85;;
31368;SDS011;18004;48.416;10.066;2024-03-07T06:55:03;40.05;;;20.38;;
31368;SDS011;18004;48.416;10.066;2024-03-07T06:57:29;35.03;;;19.70;;
31368;SDS011;18004;48.416;10.066;2024-03-07T06:59:55;38.47;;;19.83;;
31368;SDS011;18004;48.416;10.066;2024-03-07T07:02:21;39.20;;;18.85;;
31368;SDS011;18004;48.416;10.066;2024-03-07T07:04:47;40.08;;;21.13;;
31368;SDS011;18004;48.416;10.066;2024-03-07T07:07:13;40.42;;;20.60;;
31368;SDS011;18004;48.416;10.066;2024-03-07T07:09:41;45.42;;;20.30;;
31368;SDS011;18004;48.416;10.066;2024-03-07T07:12:07;45.42;;;20.70;;
31368;SDS011;18004;48.416;10.066;2024-03-07T07:14:33;35.42;;;18.58;;
31368;SDS011;18004;48.416;10.066;2024-03-07T07:17:01;42.63;;;19.65;;
31368;SDS011;18004;48.416;10.066;2024-03-07T07:19:27;40.67;;;20.73;;
31368;SDS011;18004;48.416;10.066;2024-03-07T07:21:53;42.83;;;21.42;;
31368;SDS011;18004;48.416;10.066;2024-03-07T07:24:19;40.00;;;21.05;;
31368;SDS011;18004;48.416;10.066;2024-03-07T07:26:51;41.53;;;20.17;;
31368;SDS011;18004;48.416;10.066;2024-03-07T07:29:17;37.13;;;18.77;;
31368;SDS011;18004;48.416;10.066;2024-03-07T07:31:43;36.50;;;20.00;;
31368;SDS011;18004;48.416;10.066;2024-03-07T07:34:10;38.95;;;20.83;;
31368;SDS011;18004;48.416;10.066;2024-03-07T07:36:36;39.63;;;19.02;;
31368;SDS011;18004;48.416;10.066;2024-03-07T07:39:02;42.13;;;21.85;;
31368;SDS011;18004;48.416;10.066;2024-03-07T07:41:28;39.50;;;19.17;;
31368;SDS011;18004;48.416;10.066;2024-03-07T07:43:55;45.28;;;19.77;;
31368;SDS011;18004;48.416;10.066;2024-03-07T07:46:22;41.22;;;19.85;;
31368;SDS011;18004;48.416;10.066;2024-03-07T07:48:48;34.45;;;18.90;;
31368;SDS011;18004;48.416;10.066;2024-03-07T07:51:14;38.17;;;20.15;;
31368;SDS011;18004;48.416;10.066;2024-03-07T07:53:40;39.42;;;19.45;;
31368;SDS011;18004;48.416;10.066;2024-03-07T07:56:05;46.22;;;22.20;;
31368;SDS011;18004;48.416;10.066;2024-03-07T07:58:33;43.97;;;20.08;;
31368;SDS011;18004;48.416;10.066;2024-03-07T08:00:59;42.72;;;21.83;;
31368;SDS011;18004;48.416;10.066;2024-03-07T08:03:24;43.35;;;20.55;;
31368;SDS011;18004;48.416;10.066;2024-03-07T08:05:50;39.63;;;21.67;;
31368;SDS011;18004;48.416;10.066;2024-03-07T08:08:16;46.08;;;21.35;;
31368;SDS011;18004;48.416;10.066;2024-03-07T08:10:43;42.40;;;21.33;;
31368;SDS011;18004;48.416;10.066;2024-03-07T08:13:13;48.97;;;21.42;;
31368;SDS011;18004;48.416;10.066;2024-03-07T08:15:38;40.63;;;21.48;;
31368;SDS011;18004;48.416;10.066;2024-03-07T08:18:04;48.95;;;22.75;;
31368;SDS011;18004;48.416;10.066;2024-03-07T08:20:37;43.42;;;22.42;;
31368;SDS011;18004;48.416;10.066;2024-03-07T08:23:04;45.28;;;22.15;;
31368;SDS011;18004;48.416;10.066;2024-03-07T08:25:29;42.90;;;20.70;;
31368;SDS011;18004;48.416;10.066;2024-03-07T08:27:56;42.38;;;21.23;;
31368;SDS011;18004;48.416;10.066;2024-03-07T08:30:23;45.40;;;23.50;;
31368;SDS011;18004;48.416;10.066;2024-03-07T08:32:53;57.90;;;22.52;;
31368;SDS011;18004;48.416;10.066;2024-03-07T08:35:20;41.63;;;21.20;;
31368;SDS011;18004;48.416;10.066;2024-03-07T08:37:52;38.22;;;20.17;;
31368;SDS011;18004;48.416;10.066;2024-03-07T08:40:19;47.22;;;21.98;;
31368;SDS011;18004;48.416;10.066;2024-03-07T08:42:52;44.80;;;21.77;;
31368;SDS011;18004;48.416;10.066;2024-03-07T08:45:21;49.80;;;22.65;;
31368;SDS011;18004;48.416;10.066;2024-03-07T08:47:51;44.67;;;21.63;;
31368;SDS011;18004;48.416;10.066;2024-03-07T08:50:19;43.72;;;22.98;;
31368;SDS011;18004;48.416;10.066;2024-03-07T08:52:45;37.90;;;17.85;;
31368;SDS011;18004;48.416;10.066;2024-03-07T08:55:13;38.60;;;20.85;;
31368;SDS011;18004;48.416;10.066;2024-03-07T08:57:40;44.75;;;21.17;;
31368;SDS011;18004;48.416;10.066;2024-03-07T09:00:07;42.58;;;20.92;;
31368;SDS011;18004;48.416;10.066;2024-03-07T09:02:35;45.13;;;23.75;;
31368;SDS011;18004;48.416;10.066;2024-03-07T09:05:01;40.85;;;21.00;;
31368;SDS011;18004;48.416;10.066;2024-03-07T09:07:27;46.38;;;23.15;;
31368;SDS011;18004;48.416;10.066;2024-03-07T09:09:54;53.03;;;23.08;;
31368;SDS011;18004;48.416;10.066;2024-03-07T09:12:20;48.15;;;22.58;;
31368;SDS011;18004;48.416;10.066;2024-03-07T09:14:46;44.65;;;21.92;;
31368;SDS011;18004;48.416;10.066;2024-03-07T09:17:12;43.92;;;23.67;;
31368;SDS011;18004;48.416;10.066;2024-03-07T09:19:38;49.67;;;24.77;;
31368;SDS011;18004;48.416;10.066;2024-03-07T09:22:04;44.03;;;22.45;;
31368;SDS011;18004;48.416;10.066;2024-03-07T09:24:33;45.72;;;21.88;;
31368;SDS011;18004;48.416;10.066;2024-03-07T09:26:59;41.92;;;23.00;;
31368;SDS011;18004;48.416;10.066;2024-03-07T09:29:26;45.60;;;21.20;;
31368;SDS011;18004;48.416;10.066;2024-03-07T09:31:53;45.63;;;23.20;;
31368;SDS011;18004;48.416;10.066;2024-03-07T09:34:19;40.17;;;19.70;;
31368;SDS011;18004;48.416;10.066;2024-03-07T09:36:46;46.13;;;21.67;;
31368;SDS011;18004;48.416;10.066;2024-03-07T09:39:14;49.50;;;22.60;;
31368;SDS011;18004;48.416;10.066;2024-03-07T09:41:40;46.75;;;22.92;;
31368;SDS011;18004;48.416;10.066;2024-03-07T09:44:08;50.55;;;23.65;;
31368;SDS011;18004;48.416;10.066;2024-03-07T09:46:40;49.08;;;23.80;;
31368;SDS011;18004;48.416;10.066;2024-03-07T09:49:06;48.72;;;22.67;;
31368;SDS011;18004;48.416;10.066;2024-03-07T09:51:37;50.17;;;23.38;;
31368;SDS011;18004;48.416;10.066;2024-03-07T09:54:04;52.47;;;24.45;;
31368;SDS011;18004;48.416;10.066;2024-03-07T09:56:30;45.80;;;22.55;;
31368;SDS011;18004;48.416;10.066;2024-03-07T09:59:03;46.17;;;22.10;;
31368;SDS011;18004;48.416;10.066;2024-03-07T10:01:33;49.00;;;24.02;;
31368;SDS011;18004;48.416;10.066;2024-03-07T10:04:00;50.47;;;24.05;;
31368;SDS011;18004;48.416;10.066;2024-03-07T10:06:35;46.55;;;24.08;;
31368;SDS011;18004;48.416;10.066;2024-03-07T10:09:02;47.55;;;22.23;;
31368;SDS011;18004;48.416;10.066;2024-03-07T10:11:29;42.50;;;23.02;;
31368;SDS011;18004;48.416;10.066;2024-03-07T10:13:55;48.83;;;21.77;;
31368;SDS011;18004;48.416;10.066;2024-03-07T10:16:20;44.05;;;22.30;;
31368;SDS011;18004;48.416;10.066;2024-03-07T10:18:48;49.85;;;22.60;;
31368;SDS011;18004;48.416;10.066;2024-03-07T10:21:19;53.03;;;23.42;;
31368;SDS011;18004;48.416;10.066;2024-03-07T10:23:45;47.63;;;21.77;;
31368;SDS011;18004;48.416;10.066;2024-03-07T10:26:11;54.25;;;24.00;;
31368;SDS011;18004;48.416;10.066;2024-03-07T10:28:38;49.80;;;24.05;;
31368;SDS011;18004;48.416;10.066;2024-03-07T10:31:04;51.22;;;23.52;;
31368;SDS011;18004;48.416;10.066;2024-03-07T10:33:39;51.65;;;22.27;;
31368;SDS011;18004;48.416;10.066;2024-03-07T10:36:05;31.63;;;16.17;;
31368;SDS011;18004;48.416;10.066;2024-03-07T10:38:38;46.30;;;23.10;;
31368;SDS011;18004;48.416;10.066;2024-03-07T10:41:04;42.45;;;22.63;;
31368;SDS011;18004;48.416;10.066;2024-03-07T10:43:35;30.40;;;15.32;;
31368;SDS011;18004;48.416;10.066;2024-03-07T10:46:04;52.08;;;23.70;;
31368;SDS011;18004;48.416;10.066;2024-03-07T10:48:31;43.65;;;21.77;;
31368;SDS011;18004;48.416;10.066;2024-03-07T10:51:20;50.33;;;21.92;;
31368;SDS011;18004;48.416;10.066;2024-03-07T10:59:33;34.90;;;16.05;;
31368;SDS011;18004;48.416;10.066;2024-03-07T11:04:52;46.17;;;21.77;;
31368;SDS011;18004;48.416;10.066;2024-03-07T11:07:20;42.80;;;21.38;;
31368;SDS011;18004;48.416;10.066;2024-03-07T11:09:48;41.60;;;22.25;;
31368;SDS011;18004;48.416;10.066;2024-03-07T11:12:18;41.05;;;22.58;;
31368;SDS011;18004;48.416;10.066;2024-03-07T11:14:48;52.08;;;23.35;;
31368;SDS011;18004;48.416;10.066;2024-03-07T11:17:17;48.13;;;24.02;;
31368;SDS011;18004;48.416;10.066;2024-03-07T11:19:44;50.08;;;24.67;;
31368;SDS011;18004;48.416;10.066;2024-03-07T11:22:27;48.58;;;24.30;;
31368;SDS011;18004;48.416;10.066;2024-03-07T11:27:31;44.15;;;23.75;;
31368;SDS011;18004;48.416;10.066;2024-03-07T11:30:05;42.88;;;21.98;;
31368;SDS011;18004;48.416;10.066;2024-03-07T11:32:34;41.20;;;20.73;;
31368;SDS011;18004;48.416;10.066;2024-03-07T11:35:12;50.97;;;23.42;;
31368;SDS011;18004;48.416;10.066;2024-03-07T11:37:47;34.17;;;17.95;;
31368;SDS011;18004;48.416;10.066;2024-03-07T11:42:47;45.35;;;21.98;;
31368;SDS011;18004;48.416;10.066;2024-03-07T11:45:14;49.75;;;21.92;;
31368;SDS011;18004;48.416;10.066;2024-03-07T11:47:59;38.38;;;20.92;;
31368;SDS011;18004;48.416;10.066;2024-03-07T11:50:32;45.97;;;20.60;;
31368;SDS011;18004;48.416;10.066;2024-03-07T11:53:00;40.35;;;19.33;;
31368;SDS011;18004;48.416;10.066;2024-03-07T11:55:27;50.67;;;23.13;;
31368;SDS011;18004;48.416;10.066;2024-03-07T11:58:13;44.58;;;21.77;;
31368;SDS011;18004;48.416;10.066;2024-03-07T12:00:41;39.40;;;20.65;;
31368;SDS011;18004;48.416;10.066;2024-03-07T12:03:12;44.47;;;20.77;;
31368;SDS011;18004;48.416;10.066;2024-03-07T12:05:47;37.42;;;20.13;;
31368;SDS011;18004;48.416;10.066;2024-03-07T12:08:14;44.83;;;20.83;;
31368;SDS011;18004;48.416;10.066;2024-03-07T12:10:40;41.50;;;20.60;;
31368;SDS011;18004;48.416;10.066;2024-03-07T12:13:10;46.13;;;20.60;;
31368;SDS011;18004;48.416;10.066;2024-03-07T12:15:37;37.65;;;21.25;;
31368;SDS011;18004;48.416;10.066;2024-03-07T12:18:04;45.38;;;20.98;;
31368;SDS011;18004;48.416;10.066;2024-03-07T12:20:37;37.88;;;19.85;;
31368;SDS011;18004;48.416;10.066;2024-03-07T12:23:06;39.78;;;20.58;;
31368;SDS011;18004;48.416;10.066;2024-03-07T12:25:36;53.47;;;21.45;;
31368;SDS011;18004;48.416;10.066;2024-03-07T12:28:06;41.83;;;20.20;;
31368;SDS011;18004;48.416;10.066;2024-03-07T12:33:21;38.80;;;19.45;;
31368;SDS011;18004;48.416;10.066;2024-03-07T12:35:51;40.65;;;17.70;;
31368;SDS011;18004;48.416;10.066;2024-03-07T12:38:18;37.83;;;18.33;;
31368;SDS011;18004;48.416;10.066;2024-03-07T12:40:46;48.38;;;19.75;;
31368;SDS011;18004;48.416;10.066;2024-03-07T12:43:21;39.15;;;18.02;;
31368;SDS011;18004;48.416;10.066;2024-03-07T12:45:48;36.30;;;17.80;;
31368;SDS011;18004;48.416;10.066;2024-03-07T12:48:17;35.58;;;18.60;;
31368;SDS011;18004;48.416;10.066;2024-03-07T12:50:46;45.25;;;19.67;;
31368;SDS011;18004;48.416;10.066;2024-03-07T12:53:19;38.22;;;20.55;;
31368;SDS011;18004;48.416;10.066;2024-03-07T12:55:49;13.35;;;9.90;;
31368;SDS011;18004;48.416;10.066;2024-03-07T12:58:17;46.25;;;20.05;;
31368;SDS011;18004;48.416;10.066;2024-03-07T13:00:44;41.75;;;19.27;;
31368;SDS011;18004;48.416;10.066;2024-03-07T13:03:10;38.50;;;18.73;;
31368;SDS011;18004;48.416;10.066;2024-03-07T13:05:39;43.13;;;20.15;;
31368;SDS011;18004;48.416;10.066;2024-03-07T13:08:09;45.30;;;21.40;;
31368;SDS011;18004;48.416;10.066;2024-03-07T13:10:41;42.75;;;20.17;;
31368;SDS011;18004;48.416;10.066;2024-03-07T13:13:08;40.33;;;20.60;;
31368;SDS011;18004;48.416;10.066;2024-03-07T13:15:37;41.90;;;20.08;;
31368;SDS011;18004;48.416;10.066;2024-03-07T13:18:04;43.40;;;21.35;;
31368;SDS011;18004;48.416;10.066;2024-03-07T13:20:31;36.05;;;18.67;;
31368;SDS011;18004;48.416;10.066;2024-03-07T13:22:57;47.05;;;20.13;;
31368;SDS011;18004;48.416;10.066;2024-03-07T13:25:26;36.97;;;19.10;;
31368;SDS011;18004;48.416;10.066;2024-03-07T13:27:59;42.15;;;18.65;;
31368;SDS011;18004;48.416;10.066;2024-03-07T13:30:28;43.92;;;20.85;;
31368;SDS011;18004;48.416;10.066;2024-03-07T13:32:54;36.22;;;18.95;;
31368;SDS011;18004;48.416;10.066;2024-03-07T13:35:21;35.15;;;19.08;;
31368;SDS011;18004;48.416;10.066;2024-03-07T13:37:49;37.05;;;18.92;;
31368;SDS011;18004;48.416;10.066;2024-03-07T13:40:15;33.78;;;18.75;;
31368;SDS011;18004;48.416;10.066;2024-03-07T13:42:58;34.22;;;18.55;;
31368;SDS011;18004;48.416;10.066;2024-03-07T13:45:25;34.33;;;18.25;;
31368;SDS011;18004;48.416;10.066;2024-03-07T13:47:53;49.47;;;19.88;;
31368;SDS011;18004;48.416;10.066;2024-03-07T13:50:20;32.30;;;16.80;;
31368;SDS011;18004;48.416;10.066;2024-03-07T13:52:50;34.38;;;17.40;;
31368;SDS011;18004;48.416;10.066;2024-03-07T13:58:29;27.85;;;15.63;;
31368;SDS011;18004;48.416;10.066;2024-03-07T14:03:51;28.13;;;15.48;;
31368;SDS011;18004;48.416;10.066;2024-03-07T14:31:11;22.83;;;12.63;;
31368;SDS011;18004;48.416;10.066;2024-03-07T14:36:43;27.55;;;13.40;;
31368;SDS011;18004;48.416;10.066;2024-03-07T14:39:11;25.88;;;13.13;;
31368;SDS011;18004;48.416;10.066;2024-03-07T14:41:48;21.25;;;11.63;;
31368;SDS011;18004;48.416;10.066;2024-03-07T14:44:20;28.88;;;12.68;;
31368;SDS011;18004;48.416;10.066;2024-03-07T14:46:48;27.33;;;11.80;;
31368;SDS011;18004;48.416;10.066;2024-03-07T14:49:18;23.80;;;10.82;;
31368;SDS011;18004;48.416;10.066;2024-03-07T14:51:44;20.02;;;9.82;;
31368;SDS011;18004;48.416;10.066;2024-03-07T14:54:12;25.70;;;11.15;;
31368;SDS011;18004;48.416;10.066;2024-03-07T14:56:38;22.95;;;10.75;;
31368;SDS011;18004;48.416;10.066;2024-03-07T14:59:04;20.83;;;10.63;;
31368;SDS011;18004;48.416;10.066;2024-03-07T15:01:31;17.98;;;9.60;;
31368;SDS011;18004;48.416;10.066;2024-03-07T15:04:02;17.17;;;9.70;;